Time;durP1;ratioP1;P1;durP2;ratioP2;P2;SDS_P1;SDS_P2;PMS_P1;PMS_P2;Temp;Humidity;BMP_temperature;BMP_pressure;BME280_temperature;BME280_humidity;BME280_pressure;Samples;Min_cycle;Max_cycle;Signal;HPM_P1;HPM_P2
2022/09/21 00:01:08;;;;;;;12.77;5.25;;;18.20;99.90;;;;;;4589705;19;20022;-36
2022/09/21 00:02:39;;;;;;;10.00;5.15;;;18.20;99.90;;;;;;4589138;19;20039;-35
2022/09/21 00:04:10;;;;;;;8.52;4.50;;;18.20;99.90;;;;;;4589025;19;20014;-36
2022/09/21 00:05:42;;;;;;;8.20;4.63;;;18.20;99.90;;;;;;4589027;19;20351;-36
2022/09/21 00:07:13;;;;;;;7.03;4.22;;;18.20;99.90;;;;;;4587624;19;20015;-36
2022/09/21 00:08:44;;;;;;;6.82;3.92;;;18.20;99.90;;;;;;4591559;19;20010;-36
2022/09/21 00:10:19;;;;;;;7.57;3.70;;;18.20;99.90;;;;;;4590257;19;20100;-36
2022/09/21 00:11:50;;;;;;;6.88;4.65;;;18.20;99.90;;;;;;4590529;19;20022;-36
2022/09/21 00:13:22;;;;;;;7.43;4.63;;;18.20;99.90;;;;;;4589448;19;20019;-36
2022/09/21 00:14:55;;;;;;;7.57;4.63;;;18.20;99.90;;;;;;4590050;19;20014;-36
2022/09/21 00:16:26;;;;;;;6.65;4.05;;;18.20;99.90;;;;;;4589852;19;20014;-36
2022/09/21 00:18:00;;;;;;;8.23;4.72;;;18.30;99.90;;;;;;4589125;19;20018;-35
2022/09/21 00:19:33;;;;;;;7.25;4.32;;;18.30;99.90;;;;;;4589652;19;20014;-36
2022/09/21 00:21:10;;;;;;;7.22;3.75;;;18.20;99.90;;;;;;4588820;19;20015;-35
2022/09/21 00:22:41;;;;;;;5.68;3.42;;;18.20;99.90;;;;;;4587957;19;20366;-35
2022/09/21 00:24:12;;;;;;;6.43;4.25;;;18.20;99.90;;;;;;4587504;19;20010;-35
2022/09/21 00:25:43;;;;;;;5.97;4.20;;;18.20;99.90;;;;;;4590539;19;20021;-36
2022/09/21 00:27:14;;;;;;;7.95;4.55;;;18.20;99.90;;;;;;4586743;19;20480;-35
2022/09/21 00:28:46;;;;;;;5.43;3.42;;;18.20;99.90;;;;;;4589869;19;20015;-35
2022/09/21 00:30:17;;;;;;;5.78;3.42;;;18.20;99.90;;;;;;4588776;19;20006;-36
2022/09/21 00:31:48;;;;;;;5.78;3.40;;;18.20;99.90;;;;;;4589238;19;20018;-35
2022/09/21 00:33:19;;;;;;;5.82;3.78;;;18.20;99.90;;;;;;4590246;19;20092;-35
2022/09/21 00:34:51;;;;;;;5.00;3.50;;;18.20;99.90;;;;;;4589683;19;20014;-35
2022/09/21 00:36:23;;;;;;;4.63;3.05;;;18.20;99.90;;;;;;4589636;19;20010;-35
2022/09/21 00:37:54;;;;;;;5.10;2.90;;;18.20;99.90;;;;;;4589807;19;20419;-35
2022/09/21 00:39:28;;;;;;;4.78;2.55;;;18.20;99.90;;;;;;4590132;19;20007;-35
2022/09/21 00:40:59;;;;;;;4.82;2.75;;;18.20;99.90;;;;;;4590148;19;20014;-35
2022/09/21 00:42:32;;;;;;;5.68;2.65;;;18.20;99.90;;;;;;4589527;19;20018;-35
2022/09/21 00:44:20;;;;;;;5.68;3.05;;;18.20;99.90;;;;;;4588464;19;20380;-34
2022/09/21 00:45:56;;;;;;;4.93;2.88;;;18.20;99.90;;;;;;4589715;19;20011;-34
2022/09/21 00:47:39;;;;;;;5.85;2.80;;;18.20;99.90;;;;;;4589223;19;20549;-35
2022/09/21 00:49:10;;;;;;;4.22;2.15;;;18.20;99.90;;;;;;4588326;19;20027;-35
2022/09/21 00:50:45;;;;;;;5.50;2.88;;;18.20;99.90;;;;;;4589710;19;20014;-35
2022/09/21 00:52:18;;;;;;;4.65;2.88;;;18.20;99.90;;;;;;4588197;19;20522;-35
2022/09/21 00:53:51;;;;;;;4.13;2.63;;;18.20;99.90;;;;;;4588876;19;20007;-35
2022/09/21 00:55:29;;;;;;;3.60;2.30;;;18.20;99.90;;;;;;4588770;19;20011;-35
2022/09/21 00:57:01;;;;;;;6.25;2.67;;;18.20;99.90;;;;;;4586082;19;20594;-35
2022/09/21 00:58:37;;;;;;;5.82;3.00;;;18.10;99.90;;;;;;4589285;19;20034;-35
2022/09/21 01:00:08;;;;;;;5.05;2.70;;;18.10;99.90;;;;;;4588603;19;20445;-35
2022/09/21 01:01:41;;;;;;;;;;;18.10;99.90;;;;;;4590158;19;20472;-35
2022/09/21 01:03:12;;;;;;;4.00;2.72;;;18.10;99.90;;;;;;4587468;19;19940;-35
2022/09/21 01:04:44;;;;;;;4.47;3.22;;;18.10;99.90;;;;;;4589312;19;20010;-35
2022/09/21 01:06:16;;;;;;;5.13;3.63;;;18.10;99.90;;;;;;4588999;19;20010;-35
2022/09/21 01:07:47;;;;;;;4.93;3.42;;;18.10;99.90;;;;;;4588459;19;20015;-35
2022/09/21 01:09:18;;;;;;;6.10;3.03;;;18.20;99.90;;;;;;4588637;19;20356;-35
2022/09/21 01:11:10;;;;;;;;;;;18.30;99.90;;;;;;4589660;19;20067;-35
2022/09/21 01:12:55;;;;;;;4.05;2.28;;;18.30;99.90;;;;;;4588443;19;19919;-35
2022/09/21 01:14:44;;;;;;;6.20;2.60;;;18.40;99.90;;;;;;4586371;19;20022;-35
2022/09/21 01:16:30;;;;;;;4.13;2.47;;;18.40;99.90;;;;;;4588976;19;20033;-35
2022/09/21 01:18:11;;;;;;;4.70;2.92;;;18.40;99.90;;;;;;4587774;19;20116;-35
2022/09/21 01:20:07;;;;;;;4.30;2.70;;;18.50;99.90;;;;;;4587936;19;20018;-35
2022/09/21 01:22:04;;;;;;;8.07;3.67;;;18.40;99.90;;;;;;4588972;19;20015;-35
2022/09/21 01:23:44;;;;;;;4.78;2.85;;;18.40;99.90;;;;;;4587953;19;20047;-35
2022/09/21 01:25:49;;;;;;;4.88;3.00;;;18.40;99.90;;;;;;4586408;19;20166;-35
2022/09/21 01:27:22;;;;;;;5.22;2.72;;;18.40;99.90;;;;;;4583916;19;20042;-35
2022/09/21 01:29:15;;;;;;;4.35;2.70;;;18.40;99.90;;;;;;4583515;19;20033;-35
2022/09/21 01:30:47;;;;;;;4.30;3.00;;;18.40;99.90;;;;;;4584791;19;20022;-37
2022/09/21 01:32:38;;;;;;;4.80;3.30;;;18.40;99.90;;;;;;4584762;19;20539;-34
2022/09/21 01:34:29;;;;;;;4.22;2.88;;;18.40;99.90;;;;;;4584936;19;20026;-35
2022/09/21 01:36:04;;;;;;;4.57;3.15;;;18.50;99.90;;;;;;4584916;19;20096;-35
2022/09/21 01:37:57;;;;;;;3.97;2.55;;;18.50;99.90;;;;;;4585826;19;20018;-35
2022/09/21 01:39:28;;;;;;;4.75;2.50;;;18.50;99.90;;;;;;4590133;19;20014;-35
2022/09/21 01:41:02;;;;;;;5.03;2.78;;;18.50;99.90;;;;;;4590565;19;20015;-35
2022/09/21 01:42:36;;;;;;;4.80;2.83;;;18.50;99.90;;;;;;4590266;19;20007;-35
2022/09/21 01:44:09;;;;;;;7.03;3.00;;;18.50;99.90;;;;;;4590634;19;20073;-35
2022/09/21 01:45:46;;;;;;;4.40;2.55;;;18.50;99.90;;;;;;4590507;19;20081;-35
2022/09/21 01:47:18;;;;;;;5.13;2.63;;;18.50;99.90;;;;;;4591093;19;20375;-35
2022/09/21 01:48:51;;;;;;;5.00;2.85;;;18.50;99.90;;;;;;4590971;19;20010;-35
2022/09/21 01:50:22;;;;;;;4.93;2.95;;;18.50;99.90;;;;;;4591109;19;20131;-35
2022/09/21 01:51:56;;;;;;;;;;;18.50;99.90;;;;;;4591790;19;20488;-35
2022/09/21 01:53:40;;;;;;;3.40;2.17;;;18.40;99.90;;;;;;4590811;19;19956;-35
2022/09/21 01:55:17;;;;;;;4.68;2.72;;;18.50;99.90;;;;;;4590980;19;20493;-35
2022/09/21 01:57:01;;;;;;;3.67;2.22;;;18.40;99.90;;;;;;4591275;19;20023;-35
2022/09/21 01:58:47;;;;;;;4.78;2.42;;;18.40;99.90;;;;;;4591619;19;20416;-35
2022/09/21 02:00:18;;;;;;;4.10;2.22;;;18.40;99.90;;;;;;4592765;19;20214;-35
2022/09/21 02:01:56;;;;;;;3.50;2.30;;;18.40;99.90;;;;;;4591902;19;20364;-35
2022/09/21 02:03:36;;;;;;;4.60;2.50;;;18.40;99.90;;;;;;4589801;19;20053;-35
2022/09/21 02:05:07;;;;;;;4.57;2.20;;;18.40;99.90;;;;;;4591894;19;20006;-35
2022/09/21 02:06:43;;;;;;;5.03;2.92;;;18.40;99.90;;;;;;4592778;19;20035;-34
2022/09/21 02:08:14;;;;;;;4.97;2.50;;;18.40;99.90;;;;;;4592627;19;20022;-35
2022/09/21 02:09:46;;;;;;;4.65;2.67;;;18.40;99.90;;;;;;4592805;19;20014;-35
2022/09/21 02:11:17;;;;;;;7.85;3.10;;;18.30;99.90;;;;;;4591569;19;20015;-35
2022/09/21 02:12:50;;;;;;;3.83;2.20;;;18.30;99.90;;;;;;4592077;19;20010;-35
2022/09/21 02:14:22;;;;;;;4.45;2.40;;;18.40;99.90;;;;;;4592588;19;20010;-35
2022/09/21 02:16:19;;;;;;;3.55;2.28;;;18.30;99.90;;;;;;4590119;19;20014;-35
2022/09/21 02:17:57;;;;;;;3.90;2.00;;;18.30;99.90;;;;;;4590254;19;20018;-35
2022/09/21 02:19:44;;;;;;;3.38;2.00;;;18.30;99.90;;;;;;4590057;19;20022;-35
2022/09/21 02:21:54;;;;;;;4.60;2.40;;;18.30;99.90;;;;;;4590190;19;20021;-35
2022/09/21 02:23:56;;;;;;;3.55;2.10;;;18.30;99.90;;;;;;4588479;19;20018;-35
2022/09/21 02:25:44;;;;;;;4.47;2.53;;;18.30;99.90;;;;;;4590406;19;20007;-35
2022/09/21 02:27:31;;;;;;;4.05;2.47;;;18.30;99.90;;;;;;4590072;19;20069;-35
2022/09/21 02:29:16;;;;;;;6.15;2.60;;;18.30;99.90;;;;;;4590045;19;20027;-35
2022/09/21 02:30:52;;;;;;;3.33;1.92;;;18.30;99.90;;;;;;4589843;19;20397;-35
2022/09/21 02:32:47;;;;;;;4.57;2.63;;;18.30;99.90;;;;;;4589896;19;20369;-35
2022/09/21 02:34:24;;;;;;;3.17;1.88;;;18.30;99.90;;;;;;4589904;19;20405;-35
2022/09/21 02:36:14;;;;;;;4.82;2.00;;;18.30;99.90;;;;;;4590147;19;20019;-35
2022/09/21 02:38:02;;;;;;;4.68;2.38;;;18.30;99.90;;;;;;4588543;19;20019;-35
2022/09/21 02:40:02;;;;;;;4.10;2.05;;;18.30;99.90;;;;;;4589828;19;20022;-35
2022/09/21 02:41:44;;;;;;;3.72;1.73;;;18.30;99.90;;;;;;4589326;19;20048;-35
2022/09/21 02:43:40;;;;;;;4.82;2.13;;;18.30;99.90;;;;;;4589033;19;20010;-35
2022/09/21 02:45:19;;;;;;;4.15;2.53;;;18.30;99.90;;;;;;4588176;19;20010;-35
2022/09/21 02:47:06;;;;;;;3.70;2.20;;;18.30;99.90;;;;;;4588292;19;20002;-35
2022/09/21 02:48:46;;;;;;;3.05;2.08;;;18.30;99.90;;;;;;4588086;19;20010;-35
2022/09/21 02:50:33;;;;;;;4.30;1.95;;;18.30;99.90;;;;;;4588498;19;20469;-35
2022/09/21 02:52:12;;;;;;;4.05;2.30;;;18.30;99.90;;;;;;4589608;19;20014;-35
2022/09/21 02:53:43;;;;;;;5.28;2.20;;;18.40;99.90;;;;;;4589336;19;20013;-35
2022/09/21 02:55:14;;;;;;;3.92;1.88;;;18.40;99.90;;;;;;4588890;19;20053;-36
2022/09/21 02:56:47;;;;;;;4.30;1.90;;;18.30;99.90;;;;;;4588720;19;20046;-35
2022/09/21 02:58:19;;;;;;;3.10;1.58;;;18.40;99.90;;;;;;4588181;19;20011;-36
2022/09/21 02:59:50;;;;;;;2.88;1.70;;;18.40;99.90;;;;;;4587686;19;20025;-35
2022/09/21 03:01:22;;;;;;;3.95;1.92;;;18.40;99.90;;;;;;4587984;19;20567;-35
2022/09/21 03:02:53;;;;;;;3.70;1.60;;;18.40;99.90;;;;;;4590839;19;20010;-35
2022/09/21 03:04:26;;;;;;;4.07;2.28;;;18.30;99.90;;;;;;4591250;19;20018;-35
2022/09/21 03:05:57;;;;;;;3.53;1.70;;;18.30;99.90;;;;;;4591828;19;20062;-35
2022/09/21 03:07:28;;;;;;;3.15;2.05;;;18.40;99.90;;;;;;4592199;19;20090;-35
2022/09/21 03:09:00;;;;;;;3.85;1.90;;;18.30;99.90;;;;;;4591065;19;20366;-35
2022/09/21 03:10:31;;;;;;;4.20;2.08;;;18.40;99.90;;;;;;4591289;19;20010;-35
2022/09/21 03:12:02;;;;;;;4.10;2.22;;;18.30;99.90;;;;;;4591401;19;20019;-35
2022/09/21 03:13:33;;;;;;;5.50;2.15;;;18.30;99.90;;;;;;4590466;19;20018;-35
2022/09/21 03:15:05;;;;;;;;;;;18.30;99.90;;;;;;4592460;19;20014;-35
2022/09/21 03:16:36;;;;;;;3.60;1.80;;;18.30;99.90;;;;;;4591399;19;19925;-35
2022/09/21 03:18:08;;;;;;;3.35;1.75;;;18.30;99.90;;;;;;4591315;19;20014;-35
2022/09/21 03:19:39;;;;;;;4.30;1.95;;;18.30;99.90;;;;;;4590208;19;20495;-35
2022/09/21 03:21:11;;;;;;;3.20;1.75;;;18.30;99.90;;;;;;4590779;19;20045;-35
2022/09/21 03:22:42;;;;;;;3.38;1.73;;;18.30;99.90;;;;;;4589931;19;20010;-35
2022/09/21 03:24:44;;;;;;;2.88;1.80;;;18.30;99.90;;;;;;4591246;19;20010;-35
2022/09/21 03:26:04;;;;;;;5.18;3.17;;;18.30;99.90;;;;;;4588954;19;20034;-35
2022/09/21 03:27:35;;;;;;;3.88;1.95;;;18.30;99.90;;;;;;4590946;19;20014;-35
2022/09/21 03:29:07;;;;;;;4.35;2.25;;;18.30;99.90;;;;;;4591116;19;20073;-35
2022/09/21 03:30:38;;;;;;;3.70;2.33;;;18.30;99.90;;;;;;4591329;19;20003;-35
2022/09/21 03:32:09;;;;;;;3.83;2.30;;;18.30;99.90;;;;;;4589604;19;20097;-35
2022/09/21 03:33:40;;;;;;;5.22;2.30;;;18.30;99.90;;;;;;4590567;19;20369;-35
2022/09/21 03:35:11;;;;;;;4.05;2.10;;;18.30;99.90;;;;;;4591298;19;20019;-35
2022/09/21 03:36:42;;;;;;;3.22;2.20;;;18.30;99.90;;;;;;4590953;19;19999;-35
2022/09/21 03:38:15;;;;;;;3.55;2.42;;;18.30;99.90;;;;;;4591490;19;20078;-35
2022/09/21 03:39:46;;;;;;;4.60;2.55;;;18.30;99.90;;;;;;4590749;19;20496;-35
2022/09/21 03:41:18;;;;;;;3.88;2.22;;;18.30;99.90;;;;;;4591085;19;20013;-35
2022/09/21 03:42:49;;;;;;;;;;;18.30;99.90;;;;;;4590067;19;20029;-35
2022/09/21 03:44:20;;;;;;;5.18;2.92;;;18.30;99.90;;;;;;4590450;19;19926;-35
2022/09/21 03:45:52;;;;;;;5.28;2.80;;;18.30;99.90;;;;;;4590814;19;20006;-35
2022/09/21 03:47:23;;;;;;;3.65;2.30;;;18.30;99.90;;;;;;4590632;19;20038;-35
2022/09/21 03:48:54;;;;;;;5.32;2.60;;;18.30;99.90;;;;;;4589741;19;20410;-35
2022/09/21 03:50:27;;;;;;;3.75;2.30;;;18.30;99.90;;;;;;4590167;19;20019;-35
2022/09/21 03:51:58;;;;;;;4.97;2.67;;;18.20;99.90;;;;;;4589342;19;20089;-35
2022/09/21 03:53:29;;;;;;;4.47;2.15;;;18.20;99.90;;;;;;4590135;19;20018;-35
2022/09/21 03:55:00;;;;;;;4.15;1.92;;;18.30;99.90;;;;;;4590597;19;20019;-35
2022/09/21 03:56:31;;;;;;;4.63;2.60;;;18.20;99.90;;;;;;4590649;19;20022;-35
2022/09/21 03:58:02;;;;;;;5.38;3.47;;;18.20;99.90;;;;;;4590630;19;20010;-35
2022/09/21 03:59:34;;;;;;;4.32;2.55;;;18.30;99.90;;;;;;4590868;19;20047;-35
2022/09/21 04:01:05;;;;;;;4.03;2.38;;;18.20;99.90;;;;;;4590348;19;20032;-35
2022/09/21 04:02:37;;;;;;;3.40;2.15;;;18.20;99.90;;;;;;4587921;19;20034;-35
2022/09/21 04:04:09;;;;;;;5.03;2.67;;;18.20;99.90;;;;;;4590536;19;20015;-35
2022/09/21 04:05:40;;;;;;;;;;;18.20;99.90;;;;;;4590362;19;20007;-35
2022/09/21 04:07:11;;;;;;;5.38;2.30;;;18.20;99.90;;;;;;4590125;19;19945;-35
2022/09/21 04:08:42;;;;;;;4.93;2.38;;;18.30;99.90;;;;;;4590091;19;20084;-35
2022/09/21 04:10:18;;;;;;;4.93;3.22;;;18.30;99.90;;;;;;4589377;19;20019;-35
2022/09/21 04:11:50;;;;;;;6.93;3.17;;;18.30;99.90;;;;;;4589490;19;20360;-35
2022/09/21 04:13:21;;;;;;;4.22;2.58;;;18.30;99.90;;;;;;4589007;19;20015;-35
2022/09/21 04:14:52;;;;;;;3.92;2.28;;;18.20;99.90;;;;;;4590056;19;20029;-35
2022/09/21 04:16:26;;;;;;;3.45;2.25;;;18.20;99.90;;;;;;4589219;19;20006;-36
2022/09/21 04:17:58;;;;;;;3.80;2.30;;;18.20;99.90;;;;;;4587962;19;20416;-35
2022/09/21 04:19:29;;;;;;;2.88;1.90;;;18.20;99.90;;;;;;4588427;19;20252;-35
2022/09/21 04:21:00;;;;;;;2.97;1.98;;;18.20;99.90;;;;;;4589779;19;20022;-35
2022/09/21 04:22:31;;;;;;;4.05;2.15;;;18.20;99.90;;;;;;4589187;19;20590;-35
2022/09/21 04:24:03;;;;;;;2.88;1.83;;;18.20;99.90;;;;;;4590282;19;20014;-35
2022/09/21 04:25:34;;;;;;;3.70;1.92;;;18.20;99.90;;;;;;4588781;19;20014;-35
2022/09/21 04:27:09;;;;;;;2.65;2.05;;;18.20;99.90;;;;;;4589402;19;20348;-36
2022/09/21 04:28:40;;;;;;;3.80;1.92;;;18.20;99.90;;;;;;4590007;19;20017;-35
2022/09/21 04:30:13;;;;;;;3.28;1.48;;;18.20;99.90;;;;;;4589825;19;20006;-35
2022/09/21 04:31:44;;;;;;;3.03;1.70;;;18.20;99.90;;;;;;4588497;19;20043;-35
2022/09/21 04:33:15;;;;;;;3.08;2.08;;;18.20;99.90;;;;;;4589370;19;20039;-35
2022/09/21 04:34:46;;;;;;;2.47;1.65;;;18.20;99.90;;;;;;4589772;19;20368;-35
2022/09/21 04:36:19;;;;;;;3.10;1.90;;;18.20;99.90;;;;;;4589689;19;20475;-35
2022/09/21 04:37:54;;;;;;;2.75;1.55;;;18.20;99.90;;;;;;4589382;19;20011;-35
2022/09/21 04:39:25;;;;;;;4.25;2.05;;;18.20;99.90;;;;;;4589974;19;20018;-35
2022/09/21 04:40:57;;;;;;;3.20;2.05;;;18.20;99.90;;;;;;4589009;19;20019;-35
2022/09/21 04:42:28;;;;;;;3.17;2.00;;;18.20;99.90;;;;;;4588860;19;20059;-35
2022/09/21 04:44:00;;;;;;;4.05;2.60;;;18.20;99.90;;;;;;4589716;19;20069;-35
2022/09/21 04:45:31;;;;;;;3.97;2.20;;;18.20;99.90;;;;;;4589673;19;20007;-35
2022/09/21 04:47:02;;;;;;;3.78;2.30;;;18.20;99.90;;;;;;4589946;19;20579;-35
2022/09/21 04:48:33;;;;;;;3.28;2.00;;;18.20;99.90;;;;;;4589614;19;20014;-35
2022/09/21 04:50:05;;;;;;;3.85;2.25;;;18.20;99.90;;;;;;4589632;19;20006;-35
2022/09/21 04:51:36;;;;;;;4.30;2.15;;;18.20;99.90;;;;;;4588510;19;20010;-35
2022/09/21 04:53:07;;;;;;;3.58;2.22;;;18.20;99.90;;;;;;4588966;19;20023;-35
2022/09/21 04:54:38;;;;;;;4.25;2.33;;;18.20;99.90;;;;;;4589523;19;20480;-35
2022/09/21 04:56:10;;;;;;;3.83;2.10;;;18.20;99.90;;;;;;4589473;19;20010;-36
2022/09/21 04:57:41;;;;;;;5.03;2.47;;;18.20;99.90;;;;;;4588415;19;20100;-35
2022/09/21 04:59:12;;;;;;;4.93;2.85;;;18.20;99.90;;;;;;4589264;19;20797;-35
2022/09/21 05:00:43;;;;;;;5.25;2.38;;;18.20;99.90;;;;;;4589324;19;20010;-36
2022/09/21 05:02:14;;;;;;;4.45;2.28;;;18.20;99.90;;;;;;4589426;19;20007;-36
2022/09/21 05:03:45;;;;;;;3.63;2.35;;;18.20;99.90;;;;;;4589002;19;20352;-36
2022/09/21 05:05:16;;;;;;;4.20;2.20;;;18.30;99.90;;;;;;4589181;19;20014;-35
2022/09/21 05:06:47;;;;;;;4.95;2.28;;;18.20;99.90;;;;;;4589305;19;20025;-35
2022/09/21 05:10:01;;;;;;;4.75;2.38;;;18.20;99.90;;;;;;4589368;19;20014;-34
2022/09/21 05:10:10;;;;;;;5.00;2.60;;;18.20;99.90;;;;;;4589394;19;20019;-35
2022/09/21 05:11:41;;;;;;;4.85;2.58;;;18.20;99.90;;;;;;4588967;19;20014;-35
2022/09/21 05:13:12;;;;;;;3.72;2.15;;;18.20;99.90;;;;;;4587282;19;20014;-35
2022/09/21 05:14:43;;;;;;;4.82;2.30;;;18.30;99.90;;;;;;4589222;19;20010;-35
2022/09/21 05:16:15;;;;;;;4.10;2.10;;;18.30;99.90;;;;;;4589327;19;20022;-36
2022/09/21 05:17:46;;;;;;;;;;;18.30;99.90;;;;;;4590406;19;20018;-35
2022/09/21 05:19:17;;;;;;;4.20;2.08;;;18.30;99.90;;;;;;4587856;19;19918;-35
2022/09/21 05:20:55;;;;;;;4.25;2.30;;;18.30;99.90;;;;;;4588576;19;20011;-35
2022/09/21 05:22:26;;;;;;;5.85;2.63;;;18.30;99.90;;;;;;4588201;19;20014;-35
2022/09/21 05:24:01;;;;;;;6.82;2.97;;;18.30;99.90;;;;;;4586432;19;20349;-35
2022/09/21 05:25:32;;;;;;;4.80;2.50;;;18.30;99.90;;;;;;4588529;19;20016;-35
2022/09/21 05:27:03;;;;;;;4.10;2.20;;;18.30;99.90;;;;;;4589238;19;20010;-35
2022/09/21 05:28:34;;;;;;;3.90;2.00;;;18.30;99.90;;;;;;4588765;19;20018;-35
2022/09/21 05:30:07;;;;;;;5.22;2.42;;;18.30;99.90;;;;;;4588578;19;20490;-35
2022/09/21 05:31:56;;;;;;;3.83;2.75;;;18.30;99.90;;;;;;4588693;19;20015;-36
2022/09/21 05:33:29;;;;;;;3.80;2.28;;;18.30;99.90;;;;;;4587436;19;20480;-35
2022/09/21 05:35:13;;;;;;;3.67;2.58;;;18.30;99.90;;;;;;4587848;19;20033;-35
2022/09/21 05:36:58;;;;;;;3.70;2.22;;;18.30;99.90;;;;;;4588527;19;20029;-35
2022/09/21 05:38:29;;;;;;;3.15;1.80;;;18.30;99.90;;;;;;4588820;19;20590;-36
2022/09/21 05:40:01;;;;;;;3.78;2.30;;;18.30;99.90;;;;;;4588463;19;20011;-35
2022/09/21 05:41:32;;;;;;;5.20;2.10;;;18.30;99.90;;;;;;4588886;19;20002;-35
2022/09/21 05:43:03;;;;;;;;;;;18.30;99.90;;;;;;4588784;19;20494;-35
2022/09/21 05:44:34;;;;;;;3.33;1.92;;;18.30;99.90;;;;;;4588351;19;19918;-35
2022/09/21 05:46:42;;;;;;;4.25;2.10;;;18.30;99.90;;;;;;4587264;19;20022;-35
2022/09/21 05:48:25;;;;;;;4.88;2.53;;;18.30;99.90;;;;;;4585183;19;20055;-34
2022/09/21 05:50:05;;;;;;;5.90;2.40;;;18.30;99.90;;;;;;4586331;19;20597;-34
2022/09/21 05:51:52;;;;;;;5.70;3.20;;;18.30;99.90;;;;;;4586403;19;20014;-34
2022/09/21 05:53:36;;;;;;;5.35;3.45;;;18.30;99.90;;;;;;4585230;19;20014;-35
2022/09/21 05:55:18;;;;;;;3.97;2.60;;;18.30;99.90;;;;;;4586024;19;20022;-34
2022/09/21 05:57:11;;;;;;;3.35;2.28;;;18.30;99.90;;;;;;4585672;19;20020;-35
2022/09/21 05:59:21;;;;;;;8.02;4.90;;;18.30;99.90;;;;;;4585583;19;20026;-35
2022/09/21 06:00:58;;;;;;;6.40;3.38;;;18.30;99.90;;;;;;4586793;19;21053;-35
2022/09/21 06:02:44;;;;;;;7.30;3.95;;;18.30;99.90;;;;;;4585721;19;20149;-35
2022/09/21 06:04:16;;;;;;;4.57;2.70;;;18.30;99.90;;;;;;4585346;19;20030;-35
2022/09/21 06:05:47;;;;;;;4.53;2.50;;;18.30;99.90;;;;;;4586485;19;20017;-35
2022/09/21 06:07:18;;;;;;;5.85;3.00;;;18.20;99.90;;;;;;4585296;19;20039;-34
2022/09/21 06:08:49;;;;;;;6.80;3.67;;;18.20;99.90;;;;;;4586408;19;20010;-34
2022/09/21 06:10:23;;;;;;;5.47;3.55;;;18.20;99.90;;;;;;4585301;19;20510;-34
2022/09/21 06:11:54;;;;;;;4.65;3.40;;;18.20;99.90;;;;;;4584076;19;20139;-35
2022/09/21 06:13:25;;;;;;;3.22;2.00;;;18.20;99.90;;;;;;4585561;19;20375;-33
2022/09/21 06:14:57;;;;;;;2.65;1.58;;;18.30;99.90;;;;;;4585418;19;20022;-33
2022/09/21 06:16:38;;;;;;;5.38;3.63;;;18.40;99.90;;;;;;4586991;19;20018;-34
2022/09/21 06:18:09;;;;;;;7.25;4.95;;;18.50;99.90;;;;;;4584857;19;20034;-33
2022/09/21 06:19:40;;;;;;;5.15;3.17;;;18.50;99.90;;;;;;4584762;19;20399;-34
2022/09/21 06:21:11;;;;;;;5.28;3.22;;;18.60;99.90;;;;;;4585737;19;20368;-34
2022/09/21 06:22:43;;;;;;;3.78;2.45;;;18.60;99.90;;;;;;4583448;19;20854;-34
2022/09/21 06:24:14;;;;;;;7.28;3.97;;;18.60;99.90;;;;;;4586344;19;20070;-35
2022/09/21 06:25:51;;;;;;;7.28;4.20;;;18.60;99.90;;;;;;4588383;19;20019;-35
2022/09/21 06:27:22;;;;;;;5.68;3.25;;;18.60;99.90;;;;;;4592339;19;20472;-35
2022/09/21 06:28:54;;;;;;;6.05;2.95;;;18.60;99.90;;;;;;4590064;19;20472;-35
2022/09/21 06:30:25;;;;;;;8.65;3.83;;;18.60;99.90;;;;;;4590120;19;20018;-35
2022/09/21 06:31:56;;;;;;;5.55;3.22;;;18.60;99.90;;;;;;4589946;19;20018;-35
2022/09/21 06:33:27;;;;;;;9.45;4.32;;;18.60;99.90;;;;;;4590008;19;20025;-35
2022/09/21 06:34:58;;;;;;;8.23;4.30;;;18.60;99.90;;;;;;4589943;19;20070;-34
2022/09/21 06:36:30;;;;;;;6.65;3.10;;;18.70;99.90;;;;;;4589670;19;20035;-35
2022/09/21 06:38:02;;;;;;;4.40;2.38;;;18.80;99.90;;;;;;4591262;19;20006;-35
2022/09/21 06:39:33;;;;;;;6.18;3.90;;;18.70;99.90;;;;;;4592410;19;20010;-35
2022/09/21 06:41:04;;;;;;;5.90;2.80;;;18.70;99.90;;;;;;4591948;19;20348;-35
2022/09/21 06:42:36;;;;;;;5.90;3.22;;;18.80;99.90;;;;;;4591596;19;20029;-35
2022/09/21 06:44:07;;;;;;;6.57;2.95;;;18.90;99.90;;;;;;4592369;19;20726;-35
2022/09/21 06:45:38;;;;;;;6.65;3.42;;;19.00;99.90;;;;;;4591174;19;20022;-35
2022/09/21 06:47:09;;;;;;;9.02;4.60;;;19.00;99.90;;;;;;4591517;19;20015;-34
2022/09/21 06:48:40;;;;;;;9.10;3.90;;;19.00;99.90;;;;;;4591892;19;20014;-35
2022/09/21 06:50:11;;;;;;;7.38;4.20;;;19.00;99.90;;;;;;4591845;19;20021;-35
2022/09/21 06:51:42;;;;;;;5.70;3.67;;;19.00;99.90;;;;;;4591797;19;20018;-35
2022/09/21 06:53:13;;;;;;;7.43;3.50;;;19.00;99.90;;;;;;4591055;19;20014;-35
2022/09/21 06:54:44;;;;;;;8.40;5.07;;;19.10;99.90;;;;;;4590441;19;20468;-34
2022/09/21 06:56:15;;;;;;;3.92;3.35;;;19.10;99.90;;;;;;4591608;19;20015;-34
2022/09/21 06:57:46;;;;;;;4.18;2.00;;;19.10;99.90;;;;;;4591790;19;20007;-35
2022/09/21 06:59:18;;;;;;;3.58;2.10;;;19.00;99.90;;;;;;4589320;19;20021;-35
2022/09/21 07:00:49;;;;;;;7.00;2.63;;;19.10;99.90;;;;;;4589567;19;20022;-35
2022/09/21 07:02:20;;;;;;;7.88;2.47;;;19.10;99.90;;;;;;4591730;19;20030;-35
2022/09/21 07:03:51;;;;;;;;;;;19.20;99.90;;;;;;4592223;19;20010;-35
2022/09/21 07:05:23;;;;;;;5.85;2.15;;;19.20;99.90;;;;;;4590517;19;19914;-35
2022/09/21 07:06:54;;;;;;;3.00;1.98;;;19.20;99.90;;;;;;4591192;19;20489;-35
2022/09/21 07:08:25;;;;;;;5.00;2.10;;;19.10;99.90;;;;;;4591702;19;20070;-35
2022/09/21 07:09:59;;;;;;;;;;;19.20;99.90;;;;;;4591820;19;20002;-35
2022/09/21 07:11:31;;;;;;;4.80;2.28;;;19.20;99.90;;;;;;4589077;19;19953;-35
2022/09/21 07:13:03;;;;;;;3.55;1.90;;;19.10;99.90;;;;;;4589414;19;20023;-34
2022/09/21 07:14:34;;;;;;;5.38;1.92;;;19.00;99.90;;;;;;4589100;19;20497;-35
2022/09/21 07:16:05;;;;;;;5.57;2.20;;;19.10;99.90;;;;;;4590125;19;20022;-35
2022/09/21 07:17:38;;;;;;;7.93;2.45;;;19.10;99.90;;;;;;4588907;19;20470;-35
2022/09/21 07:19:09;;;;;;;3.15;1.83;;;19.30;99.90;;;;;;4589876;19;20018;-34
2022/09/21 07:20:40;;;;;;;6.13;1.77;;;19.20;99.90;;;;;;4590589;19;20027;-34
2022/09/21 07:22:11;;;;;;;4.35;1.67;;;19.20;99.90;;;;;;4588229;19;20090;-33
2022/09/21 07:23:42;;;;;;;4.10;1.88;;;19.10;99.90;;;;;;4587459;19;20014;-33
2022/09/21 07:25:13;;;;;;;3.88;1.80;;;19.10;99.90;;;;;;4589644;19;20041;-34
2022/09/21 07:26:44;;;;;;;3.17;1.50;;;19.00;99.90;;;;;;4590548;19;20119;-34
2022/09/21 07:28:15;;;;;;;4.53;1.95;;;19.00;99.90;;;;;;4591738;19;20475;-35
2022/09/21 07:29:47;;;;;;;;;;;19.10;99.90;;;;;;4592631;19;20014;-34
2022/09/21 07:31:18;;;;;;;4.38;2.20;;;19.10;99.90;;;;;;4591291;19;19917;-35
2022/09/21 07:32:49;;;;;;;4.80;2.22;;;19.00;99.90;;;;;;4591429;19;20015;-35
2022/09/21 07:34:20;;;;;;;3.15;1.83;;;19.10;99.90;;;;;;4589152;19;20507;-35
2022/09/21 07:35:52;;;;;;;6.15;1.90;;;19.00;99.90;;;;;;4590633;19;20015;-33
2022/09/21 07:37:23;;;;;;;;;;;18.80;99.90;;;;;;4589844;19;20015;-35
2022/09/21 07:38:54;;;;;;;4.00;2.58;;;18.10;99.90;;;;;;4590661;19;19926;-35
2022/09/21 07:40:25;;;;;;;8.60;5.10;;;16.70;99.90;;;;;;4590893;19;20011;-35
2022/09/21 07:42:00;;;;;;;6.53;3.75;;;16.00;99.90;;;;;;4591459;19;20019;-35
2022/09/21 07:43:32;;;;;;;8.18;4.97;;;15.80;99.90;;;;;;4589919;19;20018;-35
2022/09/21 07:45:03;;;;;;;4.10;2.75;;;15.70;99.90;;;;;;4591321;19;20479;-35
2022/09/21 07:46:35;;;;;;;10.55;5.55;;;15.60;99.90;;;;;;4591812;19;20069;-35
2022/09/21 07:48:10;;;;;;;9.48;6.38;;;15.60;99.90;;;;;;4590684;19;20598;-34
2022/09/21 07:49:41;;;;;;;6.95;5.38;;;15.60;99.90;;;;;;4590789;19;20013;-34
2022/09/21 07:51:13;;;;;;;3.33;2.60;;;15.70;99.90;;;;;;4591378;19;20010;-34
2022/09/21 07:52:44;;;;;;;2.92;1.92;;;15.70;99.90;;;;;;4591026;19;20031;-34
2022/09/21 07:54:15;;;;;;;3.70;1.90;;;15.70;99.90;;;;;;4590651;19;20082;-35
2022/09/21 07:55:46;;;;;;;3.35;2.10;;;15.80;99.90;;;;;;4589977;19;20010;-35
2022/09/21 07:59:07;;;;;;;8.52;4.15;;;16.60;99.90;;;;;;4590818;19;20010;-35
2022/09/21 08:00:38;;;;;;;8.20;3.47;;;17.00;99.90;;;;;;4589911;19;20029;-35
2022/09/21 08:02:09;;;;;;;5.40;2.65;;;17.20;99.90;;;;;;4591920;19;20020;-35
2022/09/21 08:03:40;;;;;;;4.57;2.53;;;17.40;99.90;;;;;;4589503;19;20022;-35
2022/09/21 08:05:11;;;;;;;10.02;4.93;;;17.50;99.90;;;;;;4590655;19;20055;-33
2022/09/21 08:06:42;;;;;;;2.85;1.67;;;17.60;99.90;;;;;;4590608;19;20559;-35
2022/09/21 08:08:15;;;;;;;5.45;3.28;;;17.40;99.90;;;;;;4590869;19;20036;-34
2022/09/21 08:09:48;;;;;;;3.63;1.98;;;16.60;99.90;;;;;;4590773;19;20471;-35
2022/09/21 08:11:21;;;;;;;2.92;1.85;;;16.20;99.90;;;;;;4590659;19;20055;-34
2022/09/21 08:12:52;;;;;;;2.88;1.30;;;16.00;99.90;;;;;;4588629;19;20025;-35
2022/09/21 08:14:23;;;;;;;2.85;1.92;;;15.90;99.90;;;;;;4589879;19;20014;-34
2022/09/21 08:16:01;;;;;;;2.55;1.52;;;15.90;99.90;;;;;;4590273;19;20517;-35
2022/09/21 08:17:32;;;;;;;4.05;2.10;;;15.80;99.90;;;;;;4589481;19;20014;-34